sensor_id;sensor_type;location;lat;lon;timestamp;pressure;altitude;pressure_sealevel;temperature;humidity
63306;BME280;50735;52.060;1.248;2024-03-08T00:02:19;101344.44;;;2.70;66.86
63306;BME280;50735;52.060;1.248;2024-03-08T00:04:51;101345.59;;;3.06;67.11
63306;BME280;50735;52.060;1.248;2024-03-08T00:07:23;101342.49;;;3.10;67.01
63306;BME280;50735;52.060;1.248;2024-03-08T00:09:55;101339.56;;;3.28;66.57
63306;BME280;50735;52.060;1.248;2024-03-08T00:12:27;101336.27;;;3.48;66.05
63306;BME280;50735;52.060;1.248;2024-03-08T00:14:59;101335.03;;;3.38;66.19
63306;BME280;50735;52.060;1.248;2024-03-08T00:17:31;101330.72;;;3.48;65.83
63306;BME280;50735;52.060;1.248;2024-03-08T00:20:02;101326.28;;;3.42;65.62
63306;BME280;50735;52.060;1.248;2024-03-08T00:22:34;101333.54;;;3.28;66.24
63306;BME280;50735;52.060;1.248;2024-03-08T00:25:07;101327.35;;;3.27;66.42
63306;BME280;50735;52.060;1.248;2024-03-08T00:27:39;101323.13;;;3.15;66.65
63306;BME280;50735;52.060;1.248;2024-03-08T00:30:11;101326.50;;;3.17;65.99
63306;BME280;50735;52.060;1.248;2024-03-08T00:32:44;101326.07;;;3.34;66.54
63306;BME280;50735;52.060;1.248;2024-03-08T00:35:15;101322.83;;;3.41;66.07
63306;BME280;50735;52.060;1.248;2024-03-08T00:37:48;101316.29;;;3.38;66.26
63306;BME280;50735;52.060;1.248;2024-03-08T00:40:20;101312.21;;;3.43;66.38
63306;BME280;50735;52.060;1.248;2024-03-08T00:42:52;101305.36;;;3.19;66.32
63306;BME280;50735;52.060;1.248;2024-03-08T00:45:24;101300.04;;;3.09;66.85
63306;BME280;50735;52.060;1.248;2024-03-08T00:47:56;101300.85;;;2.80;67.42
63306;BME280;50735;52.060;1.248;2024-03-08T00:50:28;101298.59;;;2.86;67.07
63306;BME280;50735;52.060;1.248;2024-03-08T00:53:00;101293.65;;;2.87;67.35
63306;BME280;50735;52.060;1.248;2024-03-08T00:55:31;101286.26;;;2.82;67.36
63306;BME280;50735;52.060;1.248;2024-03-08T00:58:04;101283.84;;;2.91;67.17
63306;BME280;50735;52.060;1.248;2024-03-08T01:00:35;101282.95;;;3.17;66.39
63306;BME280;50735;52.060;1.248;2024-03-08T01:03:07;101281.51;;;3.06;67.10
63306;BME280;50735;52.060;1.248;2024-03-08T01:05:39;101276.41;;;2.96;66.82
63306;BME280;50735;52.060;1.248;2024-03-08T01:08:11;101272.45;;;2.92;67.31
63306;BME280;50735;52.060;1.248;2024-03-08T01:10:43;101267.30;;;2.57;67.81
63306;BME280;50735;52.060;1.248;2024-03-08T01:13:15;101265.94;;;2.85;67.47
63306;BME280;50735;52.060;1.248;2024-03-08T01:15:47;101262.71;;;3.11;67.50
63306;BME280;50735;52.060;1.248;2024-03-08T01:18:19;101258.41;;;2.89;66.92
63306;BME280;50735;52.060;1.248;2024-03-08T01:20:51;101251.70;;;3.26;66.03
63306;BME280;50735;52.060;1.248;2024-03-08T01:23:23;101250.51;;;3.37;65.80
63306;BME280;50735;52.060;1.248;2024-03-08T01:25:55;101248.75;;;3.38;65.43
63306;BME280;50735;52.060;1.248;2024-03-08T01:28:27;101247.35;;;3.27;65.91
63306;BME280;50735;52.060;1.248;2024-03-08T01:30:59;101244.87;;;3.47;65.39
63306;BME280;50735;52.060;1.248;2024-03-08T01:33:30;101240.89;;;3.29;65.71
63306;BME280;50735;52.060;1.248;2024-03-08T01:36:02;101239.68;;;2.97;66.14
63306;BME280;50735;52.060;1.248;2024-03-08T01:38:35;101239.90;;;3.03;65.82
63306;BME280;50735;52.060;1.248;2024-03-08T01:41:06;101240.25;;;3.19;65.23
63306;BME280;50735;52.060;1.248;2024-03-08T01:43:38;101234.73;;;3.27;64.75
63306;BME280;50735;52.060;1.248;2024-03-08T01:46:10;101231.22;;;3.07;64.84
63306;BME280;50735;52.060;1.248;2024-03-08T01:48:44;101231.97;;;2.81;65.53
63306;BME280;50735;52.060;1.248;2024-03-08T01:51:16;101230.31;;;2.54;65.91
63306;BME280;50735;52.060;1.248;2024-03-08T01:53:48;101226.92;;;3.08;65.34
63306;BME280;50735;52.060;1.248;2024-03-08T01:56:20;101225.33;;;3.08;64.95
63306;BME280;50735;52.060;1.248;2024-03-08T01:58:52;101220.35;;;3.09;64.81
63306;BME280;50735;52.060;1.248;2024-03-08T02:01:25;101220.46;;;2.89;65.35
63306;BME280;50735;52.060;1.248;2024-03-08T02:03:57;101218.45;;;2.89;65.64
63306;BME280;50735;52.060;1.248;2024-03-08T02:06:29;101211.09;;;2.67;66.91
63306;BME280;50735;52.060;1.248;2024-03-08T02:09:02;101203.78;;;2.75;66.48
63306;BME280;50735;52.060;1.248;2024-03-08T02:11:34;101197.92;;;2.84;65.73
63306;BME280;50735;52.060;1.248;2024-03-08T02:14:06;101186.72;;;2.77;65.66
63306;BME280;50735;52.060;1.248;2024-03-08T02:16:38;101188.35;;;3.02;65.56
63306;BME280;50735;52.060;1.248;2024-03-08T02:19:10;101179.02;;;2.79;66.03
63306;BME280;50735;52.060;1.248;2024-03-08T02:21:42;101174.39;;;2.93;65.58
63306;BME280;50735;52.060;1.248;2024-03-08T02:24:14;101173.03;;;3.14;65.40
63306;BME280;50735;52.060;1.248;2024-03-08T02:26:46;101166.93;;;3.01;65.59
63306;BME280;50735;52.060;1.248;2024-03-08T02:29:18;101161.54;;;3.02;65.34
63306;BME280;50735;52.060;1.248;2024-03-08T02:31:50;101161.13;;;3.58;64.90
63306;BME280;50735;52.060;1.248;2024-03-08T02:34:23;101154.64;;;3.23;65.12
63306;BME280;50735;52.060;1.248;2024-03-08T02:36:54;101147.03;;;3.27;65.14
63306;BME280;50735;52.060;1.248;2024-03-08T02:39:27;101147.96;;;3.23;65.35
63306;BME280;50735;52.060;1.248;2024-03-08T02:41:59;101142.24;;;3.04;65.30
63306;BME280;50735;52.060;1.248;2024-03-08T02:44:31;101140.75;;;3.07;65.61
63306;BME280;50735;52.060;1.248;2024-03-08T02:47:03;101135.70;;;3.15;65.33
63306;BME280;50735;52.060;1.248;2024-03-08T02:49:35;101129.80;;;3.22;65.01
63306;BME280;50735;52.060;1.248;2024-03-08T02:52:07;101135.49;;;3.18;65.11
63306;BME280;50735;52.060;1.248;2024-03-08T02:54:39;101129.48;;;3.06;65.61
63306;BME280;50735;52.060;1.248;2024-03-08T02:57:11;101128.38;;;3.09;65.38
63306;BME280;50735;52.060;1.248;2024-03-08T02:59:44;101125.70;;;3.29;65.48
63306;BME280;50735;52.060;1.248;2024-03-08T03:02:15;101123.20;;;3.46;64.50
63306;BME280;50735;52.060;1.248;2024-03-08T03:04:47;101117.46;;;2.88;64.79
63306;BME280;50735;52.060;1.248;2024-03-08T03:07:19;101117.34;;;3.27;64.62
63306;BME280;50735;52.060;1.248;2024-03-08T03:09:51;101113.24;;;3.47;64.52
63306;BME280;50735;52.060;1.248;2024-03-08T03:12:23;101105.29;;;3.61;64.34
63306;BME280;50735;52.060;1.248;2024-03-08T03:14:55;101103.40;;;3.12;64.73
63306;BME280;50735;52.060;1.248;2024-03-08T03:17:27;101101.57;;;3.16;65.20
63306;BME280;50735;52.060;1.248;2024-03-08T03:19:59;101100.79;;;2.90;65.66
63306;BME280;50735;52.060;1.248;2024-03-08T03:22:30;101098.68;;;2.83;65.80
63306;BME280;50735;52.060;1.248;2024-03-08T03:25:03;101094.78;;;2.82;65.25
63306;BME280;50735;52.060;1.248;2024-03-08T03:27:35;101093.09;;;2.62;66.29
63306;BME280;50735;52.060;1.248;2024-03-08T03:30:08;101088.18;;;3.07;65.58
63306;BME280;50735;52.060;1.248;2024-03-08T03:32:40;101087.97;;;2.87;66.39
63306;BME280;50735;52.060;1.248;2024-03-08T03:35:12;101084.32;;;2.85;65.47
63306;BME280;50735;52.060;1.248;2024-03-08T03:37:44;101080.87;;;2.90;65.36
63306;BME280;50735;52.060;1.248;2024-03-08T03:40:17;101081.14;;;3.11;65.53
63306;BME280;50735;52.060;1.248;2024-03-08T03:42:49;101080.23;;;2.92;64.85
63306;BME280;50735;52.060;1.248;2024-03-08T03:45:20;101075.12;;;2.86;65.28
63306;BME280;50735;52.060;1.248;2024-03-08T03:47:53;101077.48;;;3.10;65.73
63306;BME280;50735;52.060;1.248;2024-03-08T03:50:25;101072.94;;;2.78;65.80
63306;BME280;50735;52.060;1.248;2024-03-08T03:52:57;101073.35;;;2.88;64.95
63306;BME280;50735;52.060;1.248;2024-03-08T03:55:29;101069.61;;;2.97;65.13
63306;BME280;50735;52.060;1.248;2024-03-08T03:58:01;101068.49;;;2.96;65.29
63306;BME280;50735;52.060;1.248;2024-03-08T04:00:33;101066.29;;;2.84;65.37
63306;BME280;50735;52.060;1.248;2024-03-08T04:03:04;101063.48;;;2.64;65.77
63306;BME280;50735;52.060;1.248;2024-03-08T04:05:36;101062.23;;;2.65;65.70
63306;BME280;50735;52.060;1.248;2024-03-08T04:08:08;101060.76;;;2.91;65.21
63306;BME280;50735;52.060;1.248;2024-03-08T04:10:40;101060.25;;;2.86;65.34
63306;BME280;50735;52.060;1.248;2024-03-08T04:13:11;101056.17;;;2.70;65.03
63306;BME280;50735;52.060;1.248;2024-03-08T04:15:43;101057.56;;;2.79;65.33
63306;BME280;50735;52.060;1.248;2024-03-08T04:18:16;101052.31;;;3.12;64.50
63306;BME280;50735;52.060;1.248;2024-03-08T04:20:48;101049.66;;;2.97;64.52
63306;BME280;50735;52.060;1.248;2024-03-08T04:23:20;101048.04;;;2.90;64.39
63306;BME280;50735;52.060;1.248;2024-03-08T04:25:52;101042.58;;;2.92;64.53
63306;BME280;50735;52.060;1.248;2024-03-08T04:28:24;101040.95;;;2.77;64.93
63306;BME280;50735;52.060;1.248;2024-03-08T04:30:56;101037.50;;;2.75;64.51
63306;BME280;50735;52.060;1.248;2024-03-08T04:33:28;101036.22;;;3.11;64.50
63306;BME280;50735;52.060;1.248;2024-03-08T04:36:00;101033.04;;;2.92;64.51
63306;BME280;50735;52.060;1.248;2024-03-08T04:38:32;101034.33;;;2.86;64.46
63306;BME280;50735;52.060;1.248;2024-03-08T04:41:04;101027.43;;;2.86;64.34
63306;BME280;50735;52.060;1.248;2024-03-08T04:43:36;101025.32;;;2.70;64.18
63306;BME280;50735;52.060;1.248;2024-03-08T04:46:08;101025.75;;;3.00;64.76
63306;BME280;50735;52.060;1.248;2024-03-08T04:48:40;101023.03;;;2.40;65.11
63306;BME280;50735;52.060;1.248;2024-03-08T04:51:12;101019.35;;;2.82;65.03
63306;BME280;50735;52.060;1.248;2024-03-08T04:53:45;101020.42;;;2.52;65.16
63306;BME280;50735;52.060;1.248;2024-03-08T04:56:17;101017.19;;;2.27;65.80
63306;BME280;50735;52.060;1.248;2024-03-08T04:58:49;101012.21;;;2.56;65.64
63306;BME280;50735;52.060;1.248;2024-03-08T05:01:20;101013.75;;;2.82;65.36
63306;BME280;50735;52.060;1.248;2024-03-08T05:03:52;101011.46;;;2.57;64.41
63306;BME280;50735;52.060;1.248;2024-03-08T05:06:24;101007.73;;;2.85;64.80
63306;BME280;50735;52.060;1.248;2024-03-08T05:08:56;101007.64;;;2.55;64.94
63306;BME280;50735;52.060;1.248;2024-03-08T05:11:28;101003.88;;;2.65;64.95
63306;BME280;50735;52.060;1.248;2024-03-08T05:14:00;100999.42;;;2.84;64.72
63306;BME280;50735;52.060;1.248;2024-03-08T05:16:32;100996.22;;;2.70;65.09
63306;BME280;50735;52.060;1.248;2024-03-08T05:19:04;100995.49;;;2.57;65.13
63306;BME280;50735;52.060;1.248;2024-03-08T05:21:35;100989.13;;;2.53;64.72
63306;BME280;50735;52.060;1.248;2024-03-08T05:24:08;100989.97;;;2.39;65.13
63306;BME280;50735;52.060;1.248;2024-03-08T05:26:40;100988.86;;;2.86;64.70
63306;BME280;50735;52.060;1.248;2024-03-08T05:29:12;100987.38;;;2.53;65.40
63306;BME280;50735;52.060;1.248;2024-03-08T05:31:47;100985.12;;;2.81;64.69
63306;BME280;50735;52.060;1.248;2024-03-08T05:34:19;100981.64;;;2.87;64.65
63306;BME280;50735;52.060;1.248;2024-03-08T05:36:51;100980.25;;;2.62;64.44
63306;BME280;50735;52.060;1.248;2024-03-08T05:39:23;100978.40;;;2.62;64.97
63306;BME280;50735;52.060;1.248;2024-03-08T05:41:55;100973.77;;;2.24;65.24
63306;BME280;50735;52.060;1.248;2024-03-08T05:44:27;100970.60;;;2.50;65.14
63306;BME280;50735;52.060;1.248;2024-03-08T05:46:59;100968.01;;;2.46;65.73
63306;BME280;50735;52.060;1.248;2024-03-08T05:49:31;100963.06;;;2.51;65.35
63306;BME280;50735;52.060;1.248;2024-03-08T05:52:03;100961.15;;;2.42;66.15
63306;BME280;50735;52.060;1.248;2024-03-08T05:54:35;100957.26;;;2.09;66.35
63306;BME280;50735;52.060;1.248;2024-03-08T05:57:07;100955.86;;;2.17;66.80
63306;BME280;50735;52.060;1.248;2024-03-08T05:59:38;100952.08;;;2.22;66.45
63306;BME280;50735;52.060;1.248;2024-03-08T06:02:10;100955.41;;;2.17;66.96
63306;BME280;50735;52.060;1.248;2024-03-08T06:04:42;100953.27;;;2.28;66.71
63306;BME280;50735;52.060;1.248;2024-03-08T06:07:14;100950.77;;;2.21;66.24
63306;BME280;50735;52.060;1.248;2024-03-08T06:09:45;100947.83;;;2.14;66.43
63306;BME280;50735;52.060;1.248;2024-03-08T06:12:17;100946.82;;;2.23;66.53
63306;BME280;50735;52.060;1.248;2024-03-08T06:14:49;100941.91;;;2.01;66.65
63306;BME280;50735;52.060;1.248;2024-03-08T06:17:21;100941.45;;;2.12;67.09
63306;BME280;50735;52.060;1.248;2024-03-08T06:19:53;100944.20;;;2.10;66.79
63306;BME280;50735;52.060;1.248;2024-03-08T06:22:24;100940.53;;;1.77;67.78
63306;BME280;50735;52.060;1.248;2024-03-08T06:24:56;100937.45;;;2.08;67.17
63306;BME280;50735;52.060;1.248;2024-03-08T06:27:28;100941.97;;;2.58;73.99
63306;BME280;50735;52.060;1.248;2024-03-08T06:30:00;100939.57;;;2.47;66.21
63306;BME280;50735;52.060;1.248;2024-03-08T06:32:32;100939.43;;;2.50;66.55
63306;BME280;50735;52.060;1.248;2024-03-08T06:35:05;100940.95;;;2.39;66.61
63306;BME280;50735;52.060;1.248;2024-03-08T06:37:37;100937.05;;;2.25;66.16
63306;BME280;50735;52.060;1.248;2024-03-08T06:40:10;100933.68;;;1.92;67.26
63306;BME280;50735;52.060;1.248;2024-03-08T06:42:42;100931.63;;;2.08;66.79
63306;BME280;50735;52.060;1.248;2024-03-08T06:45:15;100927.28;;;2.29;66.07
63306;BME280;50735;52.060;1.248;2024-03-08T06:47:47;100925.54;;;2.34;66.39
63306;BME280;50735;52.060;1.248;2024-03-08T06:50:19;100922.12;;;2.39;66.12
63306;BME280;50735;52.060;1.248;2024-03-08T06:52:50;100921.30;;;2.17;66.88
63306;BME280;50735;52.060;1.248;2024-03-08T06:55:22;100921.79;;;2.10;67.15
63306;BME280;50735;52.060;1.248;2024-03-08T06:57:54;100919.12;;;2.15;66.95
63306;BME280;50735;52.060;1.248;2024-03-08T07:00:26;100913.51;;;2.03;66.77
63306;BME280;50735;52.060;1.248;2024-03-08T07:02:58;100913.02;;;1.87;67.73
63306;BME280;50735;52.060;1.248;2024-03-08T07:05:30;100909.50;;;1.76;67.80
63306;BME280;50735;52.060;1.248;2024-03-08T07:08:02;100907.41;;;1.89;68.02
63306;BME280;50735;52.060;1.248;2024-03-08T07:10:34;100906.02;;;1.84;67.82
63306;BME280;50735;52.060;1.248;2024-03-08T07:13:07;100902.12;;;2.01;67.37
63306;BME280;50735;52.060;1.248;2024-03-08T07:15:39;100902.88;;;1.99;67.55
63306;BME280;50735;52.060;1.248;2024-03-08T07:18:11;100902.42;;;1.96;67.08
63306;BME280;50735;52.060;1.248;2024-03-08T07:20:43;100901.11;;;2.34;66.74
63306;BME280;50735;52.060;1.248;2024-03-08T07:23:14;100897.37;;;2.24;66.59
63306;BME280;50735;52.060;1.248;2024-03-08T07:25:46;100901.35;;;2.37;66.49
63306;BME280;50735;52.060;1.248;2024-03-08T07:28:19;100900.36;;;2.44;66.31
63306;BME280;50735;52.060;1.248;2024-03-08T07:30:51;100898.40;;;2.02;67.01
63306;BME280;50735;52.060;1.248;2024-03-08T07:33:23;100893.23;;;2.12;66.97
63306;BME280;50735;52.060;1.248;2024-03-08T07:35:56;100893.93;;;2.05;66.68
63306;BME280;50735;52.060;1.248;2024-03-08T07:38:27;100895.55;;;2.18;66.72
63306;BME280;50735;52.060;1.248;2024-03-08T07:41:00;100890.87;;;2.23;67.47
63306;BME280;50735;52.060;1.248;2024-03-08T07:43:31;100887.05;;;2.15;66.42
63306;BME280;50735;52.060;1.248;2024-03-08T07:46:03;100891.99;;;2.35;66.80
63306;BME280;50735;52.060;1.248;2024-03-08T07:48:35;100885.90;;;2.47;66.44
63306;BME280;50735;52.060;1.248;2024-03-08T07:51:07;100884.20;;;2.38;65.70
63306;BME280;50735;52.060;1.248;2024-03-08T07:53:39;100880.57;;;2.61;66.00
63306;BME280;50735;52.060;1.248;2024-03-08T07:56:11;100876.88;;;2.48;65.42
63306;BME280;50735;52.060;1.248;2024-03-08T07:58:43;100877.35;;;2.80;65.41
63306;BME280;50735;52.060;1.248;2024-03-08T08:01:16;100875.18;;;2.79;64.69
63306;BME280;50735;52.060;1.248;2024-03-08T08:03:48;100870.01;;;2.48;65.19
63306;BME280;50735;52.060;1.248;2024-03-08T08:06:20;100868.75;;;2.71;65.85
63306;BME280;50735;52.060;1.248;2024-03-08T08:08:52;100863.53;;;2.92;65.10
63306;BME280;50735;52.060;1.248;2024-03-08T08:11:26;100864.15;;;3.13;63.71
63306;BME280;50735;52.060;1.248;2024-03-08T08:13:58;100863.39;;;2.94;64.28
63306;BME280;50735;52.060;1.248;2024-03-08T08:16:29;100863.05;;;3.07;64.22
63306;BME280;50735;52.060;1.248;2024-03-08T08:19:01;100859.69;;;2.51;64.89
63306;BME280;50735;52.060;1.248;2024-03-08T08:21:34;100853.52;;;3.42;66.05
63306;BME280;50735;52.060;1.248;2024-03-08T08:24:06;100844.84;;;3.49;62.78
63306;BME280;50735;52.060;1.248;2024-03-08T08:26:38;100844.33;;;3.66;61.95
63306;BME280;50735;52.060;1.248;2024-03-08T08:29:10;100842.72;;;3.46;62.02
63306;BME280;50735;52.060;1.248;2024-03-08T08:31:42;100848.23;;;3.56;61.88
63306;BME280;50735;52.060;1.248;2024-03-08T08:34:13;100843.96;;;3.94;60.32
63306;BME280;50735;52.060;1.248;2024-03-08T08:36:45;100840.23;;;3.82;60.99
63306;BME280;50735;52.060;1.248;2024-03-08T08:39:17;100834.31;;;4.12;60.29
63306;BME280;50735;52.060;1.248;2024-03-08T08:41:49;100836.48;;;4.06;61.16
63306;BME280;50735;52.060;1.248;2024-03-08T08:44:21;100833.87;;;3.76;60.42
63306;BME280;50735;52.060;1.248;2024-03-08T08:46:53;100845.74;;;3.58;61.50
63306;BME280;50735;52.060;1.248;2024-03-08T08:49:25;100836.14;;;4.37;60.21
63306;BME280;50735;52.060;1.248;2024-03-08T08:51:57;100830.16;;;4.17;59.31
63306;BME280;50735;52.060;1.248;2024-03-08T08:54:29;100824.43;;;3.88;59.56
63306;BME280;50735;52.060;1.248;2024-03-08T08:57:00;100831.13;;;3.96;59.61
63306;BME280;50735;52.060;1.248;2024-03-08T08:59:32;100826.52;;;4.14;61.22
63306;BME280;50735;52.060;1.248;2024-03-08T09:02:05;100823.86;;;4.03;59.87
63306;BME280;50735;52.060;1.248;2024-03-08T09:04:37;100822.08;;;3.84;59.95
63306;BME280;50735;52.060;1.248;2024-03-08T09:07:09;100819.78;;;4.34;59.20
63306;BME280;50735;52.060;1.248;2024-03-08T09:09:42;100818.42;;;4.45;58.80
63306;BME280;50735;52.060;1.248;2024-03-08T09:12:14;100819.14;;;3.89;59.17
63306;BME280;50735;52.060;1.248;2024-03-08T09:14:46;100814.58;;;4.35;59.70
63306;BME280;50735;52.060;1.248;2024-03-08T09:17:18;100817.27;;;4.05;59.84
63306;BME280;50735;52.060;1.248;2024-03-08T09:19:51;100812.60;;;4.04;59.50
63306;BME280;50735;52.060;1.248;2024-03-08T09:22:23;100810.90;;;4.58;58.85
63306;BME280;50735;52.060;1.248;2024-03-08T09:24:55;100809.56;;;4.80;57.98
63306;BME280;50735;52.060;1.248;2024-03-08T09:27:27;100800.29;;;5.09;56.34
63306;BME280;50735;52.060;1.248;2024-03-08T09:29:59;100797.84;;;5.02;56.91
63306;BME280;50735;52.060;1.248;2024-03-08T09:32:31;100801.02;;;4.12;58.60
63306;BME280;50735;52.060;1.248;2024-03-08T09:35:04;100790.40;;;4.43;58.13
63306;BME280;50735;52.060;1.248;2024-03-08T09:37:36;100788.85;;;4.20;58.59
63306;BME280;50735;52.060;1.248;2024-03-08T09:40:09;100781.60;;;4.03;58.53
63306;BME280;50735;52.060;1.248;2024-03-08T09:42:41;100773.90;;;4.19;57.91
63306;BME280;50735;52.060;1.248;2024-03-08T09:45:13;100770.19;;;4.38;57.06
63306;BME280;50735;52.060;1.248;2024-03-08T09:47:45;100760.22;;;4.58;57.07
63306;BME280;50735;52.060;1.248;2024-03-08T09:50:17;100757.14;;;5.38;56.91
63306;BME280;50735;52.060;1.248;2024-03-08T09:52:49;100753.02;;;5.78;55.48
63306;BME280;50735;52.060;1.248;2024-03-08T09:55:21;100748.18;;;6.28;53.33
63306;BME280;50735;52.060;1.248;2024-03-08T09:57:54;100743.15;;;7.07;52.44
63306;BME280;50735;52.060;1.248;2024-03-08T10:00:27;100740.53;;;7.33;50.34
63306;BME280;50735;52.060;1.248;2024-03-08T10:03:01;100733.02;;;7.13;50.50
63306;BME280;50735;52.060;1.248;2024-03-08T10:05:33;100736.89;;;6.33;51.06
63306;BME280;50735;52.060;1.248;2024-03-08T10:08:05;100736.98;;;6.59;51.09
63306;BME280;50735;52.060;1.248;2024-03-08T10:10:37;100733.52;;;6.42;51.98
63306;BME280;50735;52.060;1.248;2024-03-08T10:13:10;100726.33;;;6.33;51.36
63306;BME280;50735;52.060;1.248;2024-03-08T10:15:42;100722.06;;;6.96;50.28
63306;BME280;50735;52.060;1.248;2024-03-08T10:18:14;100720.75;;;7.26;50.00
63306;BME280;50735;52.060;1.248;2024-03-08T10:20:46;100715.56;;;8.08;48.32
63306;BME280;50735;52.060;1.248;2024-03-08T10:23:33;100707.08;;;8.60;46.66
63306;BME280;50735;52.060;1.248;2024-03-08T10:26:13;100701.86;;;8.54;46.11
63306;BME280;50735;52.060;1.248;2024-03-08T10:28:46;100701.82;;;8.66;46.60
63306;BME280;50735;52.060;1.248;2024-03-08T10:31:18;100696.15;;;8.88;46.20
63306;BME280;50735;52.060;1.248;2024-03-08T10:33:51;100694.73;;;8.15;46.04
63306;BME280;50735;52.060;1.248;2024-03-08T10:36:23;100689.23;;;8.52;45.65
63306;BME280;50735;52.060;1.248;2024-03-08T10:38:56;100683.68;;;8.05;45.89
63306;BME280;50735;52.060;1.248;2024-03-08T10:41:31;100681.00;;;7.74;45.71
63306;BME280;50735;52.060;1.248;2024-03-08T10:44:10;100671.79;;;8.12;46.00
63306;BME280;50735;52.060;1.248;2024-03-08T10:46:58;100667.34;;;8.68;45.20
63306;BME280;50735;52.060;1.248;2024-03-08T10:49:35;100666.76;;;9.39;44.56
63306;BME280;50735;52.060;1.248;2024-03-08T10:52:09;100661.65;;;9.21;44.82
63306;BME280;50735;52.060;1.248;2024-03-08T10:54:43;100658.57;;;9.26;43.46
63306;BME280;50735;52.060;1.248;2024-03-08T10:57:18;100657.42;;;8.48;44.36
63306;BME280;50735;52.060;1.248;2024-03-08T10:59:50;100653.80;;;8.17;45.15
63306;BME280;50735;52.060;1.248;2024-03-08T11:02:23;100653.73;;;8.82;43.88
63306;BME280;50735;52.060;1.248;2024-03-08T11:04:57;100641.05;;;8.97;44.16
63306;BME280;50735;52.060;1.248;2024-03-08T11:07:33;100636.77;;;8.85;44.45
63306;BME280;50735;52.060;1.248;2024-03-08T11:10:18;100631.89;;;9.37;43.29
63306;BME280;50735;52.060;1.248;2024-03-08T11:12:50;100626.69;;;8.79;43.27
63306;BME280;50735;52.060;1.248;2024-03-08T11:15:24;100627.06;;;8.52;42.67
63306;BME280;50735;52.060;1.248;2024-03-08T11:17:58;100623.19;;;9.19;41.64
63306;BME280;50735;52.060;1.248;2024-03-08T11:20:31;100619.70;;;8.86;42.61
63306;BME280;50735;52.060;1.248;2024-03-08T11:23:04;100617.99;;;9.28;42.38
63306;BME280;50735;52.060;1.248;2024-03-08T11:25:38;100610.53;;;8.71;42.43
63306;BME280;50735;52.060;1.248;2024-03-08T11:28:13;100612.17;;;9.28;42.01
63306;BME280;50735;52.060;1.248;2024-03-08T11:30:46;100605.99;;;10.54;42.04
63306;BME280;50735;52.060;1.248;2024-03-08T11:33:18;100598.14;;;10.84;39.23
63306;BME280;50735;52.060;1.248;2024-03-08T11:35:50;100596.41;;;11.25;38.89
63306;BME280;50735;52.060;1.248;2024-03-08T11:38:22;100601.96;;;11.31;39.82
63306;BME280;50735;52.060;1.248;2024-03-08T11:40:56;100597.30;;;10.81;39.83
63306;BME280;50735;52.060;1.248;2024-03-08T11:43:28;100603.41;;;10.12;40.06
63306;BME280;50735;52.060;1.248;2024-03-08T11:46:07;100603.58;;;9.43;41.09
63306;BME280;50735;52.060;1.248;2024-03-08T11:48:39;100604.22;;;8.87;42.22
63306;BME280;50735;52.060;1.248;2024-03-08T11:51:12;100604.18;;;8.77;42.04
63306;BME280;50735;52.060;1.248;2024-03-08T11:53:44;100604.10;;;8.60;42.28
63306;BME280;50735;52.060;1.248;2024-03-08T11:56:16;100593.60;;;7.95;43.88
63306;BME280;50735;52.060;1.248;2024-03-08T11:58:53;100591.64;;;7.81;44.56
63306;BME280;50735;52.060;1.248;2024-03-08T12:01:25;100589.49;;;8.40;44.47
63306;BME280;50735;52.060;1.248;2024-03-08T12:03:57;100581.38;;;8.14;44.87
63306;BME280;50735;52.060;1.248;2024-03-08T12:06:37;100579.64;;;8.45;44.47
63306;BME280;50735;52.060;1.248;2024-03-08T12:06:40;100576.04;;;8.38;44.74
63306;BME280;50735;52.060;1.248;2024-03-08T12:09:12;100570.76;;;8.12;44.82
63306;BME280;50735;52.060;1.248;2024-03-08T12:11:47;100569.57;;;7.83;44.18
63306;BME280;50735;52.060;1.248;2024-03-08T12:14:19;100566.66;;;7.50;45.53
63306;BME280;50735;52.060;1.248;2024-03-08T12:16:51;100567.56;;;7.58;45.87
63306;BME280;50735;52.060;1.248;2024-03-08T12:19:24;100559.04;;;8.21;44.80
63306;BME280;50735;52.060;1.248;2024-03-08T12:21:55;100552.57;;;8.19;44.54
63306;BME280;50735;52.060;1.248;2024-03-08T12:24:27;100550.52;;;8.42;44.14
63306;BME280;50735;52.060;1.248;2024-03-08T12:26:59;100544.53;;;8.73;43.74
63306;BME280;50735;52.060;1.248;2024-03-08T12:29:32;100537.42;;;8.48;43.72
63306;BME280;50735;52.060;1.248;2024-03-08T12:32:04;100537.08;;;8.35;44.54
63306;BME280;50735;52.060;1.248;2024-03-08T12:34:36;100538.98;;;8.18;43.83
63306;BME280;50735;52.060;1.248;2024-03-08T12:37:08;100524.88;;;8.06;44.25
63306;BME280;50735;52.060;1.248;2024-03-08T12:39:40;100520.22;;;8.75;43.39
63306;BME280;50735;52.060;1.248;2024-03-08T12:42:12;100521.04;;;8.47;43.41
63306;BME280;50735;52.060;1.248;2024-03-08T12:44:45;100517.83;;;7.64;44.19
63306;BME280;50735;52.060;1.248;2024-03-08T12:47:17;100512.06;;;7.63;44.37
63306;BME280;50735;52.060;1.248;2024-03-08T12:49:49;100507.62;;;8.18;43.78
63306;BME280;50735;52.060;1.248;2024-03-08T12:52:21;100513.02;;;8.16;43.93
63306;BME280;50735;52.060;1.248;2024-03-08T12:54:53;100504.17;;;7.82;44.15
63306;BME280;50735;52.060;1.248;2024-03-08T12:57:25;100500.04;;;7.58;45.53
63306;BME280;50735;52.060;1.248;2024-03-08T12:59:57;100499.86;;;7.68;45.50
63306;BME280;50735;52.060;1.248;2024-03-08T13:02:30;100496.74;;;8.00;44.39
63306;BME280;50735;52.060;1.248;2024-03-08T13:05:01;100492.16;;;8.27;43.87
63306;BME280;50735;52.060;1.248;2024-03-08T13:07:33;100495.24;;;7.46;45.35
63306;BME280;50735;52.060;1.248;2024-03-08T13:10:07;100490.15;;;7.57;45.45
63306;BME280;50735;52.060;1.248;2024-03-08T13:12:39;100488.99;;;7.29;45.49
63306;BME280;50735;52.060;1.248;2024-03-08T13:15:12;100489.73;;;7.54;45.78
63306;BME280;50735;52.060;1.248;2024-03-08T13:17:44;100485.96;;;7.05;46.22
63306;BME280;50735;52.060;1.248;2024-03-08T13:20:16;100476.67;;;7.34;46.01
63306;BME280;50735;52.060;1.248;2024-03-08T13:22:48;100481.30;;;7.96;45.83
63306;BME280;50735;52.060;1.248;2024-03-08T13:25:20;100461.54;;;8.25;44.98